Time;durP1;ratioP1;P1;durP2;ratioP2;P2;SDS_P1;SDS_P2;PMS_P1;PMS_P2;Temp;Humidity;BMP_temperature;BMP_pressure;BME280_temperature;BME280_humidity;BME280_pressure;Samples;Min_cycle;Max_cycle;Signal;HPM_P1;HPM_P2
2022/08/05 00:00:04;;;;;;;4.88;2.92;;;;;;;20.15;100.00;100477.25;689731;28;1091;-82
2022/08/05 00:00:25;;;;;;;6.38;2.97;;;;;;;20.13;100.00;100479.09;689768;28;1067;-81
2022/08/05 00:00:45;;;;;;;5.97;2.75;;;;;;;20.14;100.00;100494.09;689613;28;1337;-79
2022/08/05 00:01:20;;;;;;;5.60;3.05;;;;;;;20.15;100.00;100475.44;688163;28;4453;-80
2022/08/05 00:01:44;;;;;;;4.95;2.80;;;;;;;20.15;100.00;100501.13;693194;28;1430;-81
2022/08/05 00:02:05;;;;;;;5.53;3.03;;;;;;;20.18;100.00;100490.34;689058;28;1344;-80
2022/08/05 00:02:26;;;;;;;6.10;2.90;;;;;;;20.14;100.00;100478.16;689131;28;912;-80
2022/08/05 00:02:53;;;;;;;5.68;2.95;;;;;;;20.09;100.00;100502.28;687456;28;1295;-80
2022/08/05 00:03:16;;;;;;;6.15;2.90;;;;;;;20.11;100.00;100473.00;691392;28;1454;-80
2022/08/05 00:03:36;;;;;;;5.55;2.75;;;;;;;20.08;100.00;100469.56;691281;28;1310;-79
2022/08/05 00:03:57;;;;;;;5.82;3.03;;;;;;;20.16;100.00;100468.31;690348;28;4281;-81
2022/08/05 00:04:17;;;;;;;4.87;2.70;;;;;;;20.15;100.00;100469.28;693204;28;1167;-81
2022/08/05 00:04:38;;;;;;;6.18;2.80;;;;;;;20.13;100.00;100492.38;686525;28;1323;-80
2022/08/05 00:04:59;;;;;;;6.27;2.90;;;;;;;20.14;100.00;100464.91;686995;28;1441;-81
2022/08/05 00:05:20;;;;;;;5.30;2.83;;;;;;;20.13;100.00;100481.75;683627;28;1295;-80
2022/08/05 00:05:42;;;;;;;6.18;3.10;;;;;;;20.16;100.00;100460.38;685081;28;1430;-81
2022/08/05 00:06:03;;;;;;;5.30;2.90;;;;;;;20.17;100.00;100465.63;687755;28;1227;-81
2022/08/05 00:06:23;;;;;;;5.70;2.80;;;;;;;20.18;100.00;100462.00;688826;28;1742;-81
2022/08/05 00:06:44;;;;;;;5.47;2.90;;;;;;;20.15;100.00;100480.75;691735;28;1449;-81
2022/08/05 00:07:05;;;;;;;5.70;3.20;;;;;;;20.22;100.00;100468.03;689578;28;4337;-81
2022/08/05 00:07:25;;;;;;;5.33;3.23;;;;;;;20.20;100.00;100478.75;686741;28;1977;-81
2022/08/05 00:07:46;;;;;;;5.43;2.95;;;;;;;20.19;100.00;100478.81;683519;28;1602;-80
2022/08/05 00:08:13;;;;;;;6.72;3.20;;;;;;;20.21;100.00;100458.34;682611;28;1983;-81
2022/08/05 00:08:39;;;;;;;6.05;3.00;;;;;;;20.21;100.00;100458.34;686244;28;1886;-81
2022/08/05 00:09:00;;;;;;;7.50;2.92;;;;;;;20.21;100.00;100469.84;688187;28;1779;-80
2022/08/05 00:09:21;;;;;;;6.05;2.80;;;;;;;20.20;100.00;100465.47;686631;28;1984;-80
2022/08/05 00:09:41;;;;;;;5.90;2.85;;;;;;;20.19;100.00;100471.72;688015;28;1888;-80
2022/08/05 00:10:06;;;;;;;5.80;3.00;;;;;;;20.15;100.00;100466.63;689768;28;4319;-81
2022/08/05 00:10:29;;;;;;;6.20;3.05;;;;;;;20.10;100.00;100480.09;690509;28;1377;-81
2022/08/05 00:10:50;;;;;;;6.05;2.85;;;;;;;20.08;100.00;100460.75;688942;28;1223;-81
2022/08/05 00:11:16;;;;;;;6.30;3.17;;;;;;;20.08;100.00;100469.56;692186;28;1618;-80
2022/08/05 00:11:37;;;;;;;5.00;2.72;;;;;;;20.10;100.00;100460.66;689101;28;943;-80
2022/08/05 00:11:58;;;;;;;6.03;3.00;;;;;;;20.07;100.00;100494.38;692664;28;1437;-81
2022/08/05 00:12:21;;;;;;;6.03;2.90;;;;;;;20.08;100.00;100476.66;690306;28;1401;-80
2022/08/05 00:12:41;;;;;;;5.15;2.97;;;;;;;20.07;100.00;100483.75;687806;28;1547;-81
2022/08/05 00:13:02;;;;;;;6.30;3.00;;;;;;;20.08;100.00;100474.88;689321;28;4359;-80
2022/08/05 00:13:22;;;;;;;6.20;3.00;;;;;;;20.11;100.00;100457.09;690385;28;1619;-80
2022/08/05 00:13:44;;;;;;;6.33;2.93;;;;;;;20.11;100.00;100473.00;689074;28;1201;-81
2022/08/05 00:14:04;;;;;;;5.75;2.90;;;;;;;20.10;100.00;100455.38;688194;28;1230;-81
2022/08/05 00:14:25;;;;;;;5.13;3.00;;;;;;;20.14;100.00;100481.66;689887;28;1659;-80
2022/08/05 00:14:45;;;;;;;6.07;3.10;;;;;;;20.17;100.00;100468.28;689074;28;1200;-81
2022/08/05 00:15:09;;;;;;;6.20;3.22;;;;;;;20.22;100.00;100481.31;692659;28;1230;-80
2022/08/05 00:15:30;;;;;;;6.68;3.10;;;;;;;20.22;100.00;100482.16;689168;28;1095;-80
2022/08/05 00:15:51;;;;;;;6.37;2.97;;;;;;;20.18;100.00;100463.81;688966;28;1354;-81
2022/08/05 00:16:14;;;;;;;6.05;2.95;;;;;;;20.22;100.00;100465.41;679251;28;4374;-81
2022/08/05 00:16:37;;;;;;;5.30;2.78;;;;;;;20.22;100.00;100457.44;685579;28;1372;-81
2022/08/05 00:17:05;;;;;;;6.07;2.97;;;;;;;20.19;100.00;100469.06;691990;28;1497;-81
2022/08/05 00:17:26;;;;;;;5.30;2.93;;;;;;;20.17;100.00;100467.41;691930;28;1506;-81
2022/08/05 00:17:46;;;;;;;5.43;2.90;;;;;;;20.17;100.00;100475.38;689089;28;1561;-79
2022/08/05 00:18:07;;;;;;;4.65;2.90;;;;;;;20.15;100.00;100453.34;685847;28;1343;-80
2022/08/05 00:18:28;;;;;;;5.27;2.80;;;;;;;20.15;100.00;100466.63;690650;28;1226;-80
2022/08/05 00:18:49;;;;;;;5.32;3.00;;;;;;;20.16;100.00;100466.56;687545;28;1251;-79
2022/08/05 00:19:11;;;;;;;5.25;3.08;;;;;;;20.28;100.00;100474.84;686037;28;4387;-81
2022/08/05 00:19:32;;;;;;;5.50;3.00;;;;;;;20.24;100.00;100456.44;690576;28;1283;-81
2022/08/05 00:19:53;;;;;;;5.90;3.00;;;;;;;20.23;100.00;100462.66;692262;28;1203;-81
2022/08/05 00:20:13;;;;;;;5.13;2.90;;;;;;;20.17;100.00;100455.00;690310;28;1713;-81
2022/08/05 00:20:37;;;;;;;5.70;2.85;;;;;;;20.17;100.00;100462.09;690548;28;1664;-81
2022/08/05 00:20:57;;;;;;;6.78;3.17;;;;;;;20.15;100.00;100459.50;689274;28;1222;-82
2022/08/05 00:21:18;;;;;;;5.68;3.00;;;;;;;20.17;100.00;100470.06;689281;28;1370;-81
2022/08/05 00:21:38;;;;;;;6.60;3.03;;;;;;;20.14;100.00;100475.50;685189;28;1271;-81
2022/08/05 00:21:59;;;;;;;6.77;3.03;;;;;;;20.16;100.00;100492.22;681488;28;4306;-81
2022/08/05 00:22:20;;;;;;;5.47;2.90;;;;;;;20.15;100.00;100474.59;684685;28;1619;-81
2022/08/05 00:22:43;;;;;;;6.77;2.77;;;;;;;20.13;100.00;100472.00;685289;28;1169;-82
2022/08/05 00:23:03;;;;;;;6.43;2.92;;;;;;;20.13;100.00;100482.63;689010;28;1423;-82
2022/08/05 00:23:24;;;;;;;7.37;3.00;;;;;;;20.11;100.00;100468.56;691704;28;1343;-80
2022/08/05 00:23:46;;;;;;;5.53;2.75;;;;;;;20.19;100.00;100502.69;686407;28;1788;-81
2022/08/05 00:24:07;;;;;;;6.20;2.88;;;;;;;20.18;100.00;100493.84;687096;28;1544;-80
2022/08/05 00:24:36;;;;;;;6.32;2.90;;;;;;;20.15;100.00;100472.78;689679;28;1696;-81
2022/08/05 00:24:57;;;;;;;5.25;2.90;;;;;;;20.13;100.00;100476.44;689028;28;4309;-81
2022/08/05 00:25:17;;;;;;;5.60;3.50;;;;;;;20.11;100.00;100473.88;688087;28;1705;-81
2022/08/05 00:25:38;;;;;;;6.30;3.13;;;;;;;20.09;100.00;100478.41;687925;28;997;-80
2022/08/05 00:25:59;;;;;;;6.50;3.10;;;;;;;20.08;100.00;100458.94;685247;28;1621;-80
2022/08/05 00:26:23;;;;;;;6.50;2.92;;;;;;;20.13;100.00;100465.81;684514;28;1152;-80
2022/08/05 00:26:44;;;;;;;5.63;3.08;;;;;;;20.14;100.00;100463.09;683894;28;1350;-80
2022/08/05 00:27:07;;;;;;;5.45;2.97;;;;;;;20.13;100.00;100481.75;686197;28;1752;-81
2022/08/05 00:27:29;;;;;;;5.88;3.10;;;;;;;20.13;100.00;100481.75;687646;28;1906;-81
2022/08/05 00:27:50;;;;;;;5.60;2.83;;;;;;;20.14;100.00;100499.41;681106;28;1457;-80
2022/08/05 00:28:11;;;;;;;6.22;3.10;;;;;;;20.16;100.00;100465.66;685952;28;4276;-81
2022/08/05 00:28:32;;;;;;;6.10;3.10;;;;;;;20.14;100.00;100468.41;688024;28;1636;-81
2022/08/05 00:28:55;;;;;;;7.70;3.23;;;;;;;20.16;100.00;100494.88;684491;28;1648;-81
2022/08/05 00:29:15;;;;;;;6.13;3.20;;;;;;;20.17;100.00;100470.06;689048;28;1255;-80
2022/08/05 00:29:36;;;;;;;7.13;3.20;;;;;;;20.17;100.00;100492.16;687125;28;1310;-81
2022/08/05 00:29:57;;;;;;;6.32;3.25;;;;;;;20.22;100.00;100470.69;684117;28;1168;-81
2022/08/05 00:30:17;;;;;;;6.80;3.03;;;;;;;20.25;100.00;100465.25;684614;28;1434;-80
2022/08/05 00:30:42;;;;;;;7.38;3.05;;;;;;;20.25;100.00;100486.47;686039;28;1430;-80
2022/08/05 00:31:03;;;;;;;5.57;2.90;;;;;;;20.24;100.00;100468.81;688475;28;4317;-81
2022/08/05 00:31:23;;;;;;;6.03;2.83;;;;;;;20.20;100.00;100465.47;688475;28;1672;-81
2022/08/05 00:31:44;;;;;;;4.93;2.75;;;;;;;20.19;100.00;100461.09;689616;28;1120;-81
2022/08/05 00:32:07;;;;;;;6.40;3.03;;;;;;;20.25;100.00;100470.53;690303;28;1275;-81
2022/08/05 00:32:28;;;;;;;6.05;3.20;;;;;;;20.27;100.00;100473.13;688489;28;1459;-81
2022/08/05 00:32:51;;;;;;;6.07;3.30;;;;;;;20.25;100.00;100460.78;688870;28;1583;-81
2022/08/05 00:33:11;;;;;;;5.45;3.13;;;;;;;20.25;100.00;100492.63;687253;28;1243;-81
2022/08/05 00:33:33;;;;;;;6.18;3.03;;;;;;;20.22;100.00;100473.34;686326;28;1206;-80
2022/08/05 00:33:53;;;;;;;6.28;2.90;;;;;;;20.19;100.00;100462.91;686061;28;4333;-81
2022/08/05 00:34:14;;;;;;;5.50;3.00;;;;;;;20.17;100.00;100472.72;691202;28;1503;-80
2022/08/05 00:34:34;;;;;;;6.43;3.28;;;;;;;20.16;100.00;100474.50;687071;28;1317;-80
2022/08/05 00:34:55;;;;;;;5.93;3.03;;;;;;;20.15;100.00;100464.81;690622;28;1295;-81
2022/08/05 00:35:16;;;;;;;5.65;2.90;;;;;;;20.19;100.00;100484.13;691468;28;1375;-80
2022/08/05 00:35:36;;;;;;;5.90;3.10;;;;;;;20.20;100.00;100472.56;691720;28;1338;-81
2022/08/05 00:35:57;;;;;;;6.57;3.00;;;;;;;20.17;100.00;100483.31;694822;28;1278;-81
2022/08/05 00:36:24;;;;;;;7.75;2.95;;;;;;;20.16;100.00;100470.97;696963;28;1369;-81
2022/08/05 00:36:45;;;;;;;6.50;2.92;;;;;;;20.15;100.00;100480.75;686387;28;1188;-81
2022/08/05 00:37:05;;;;;;;6.38;2.90;;;;;;;20.17;100.00;100464.75;686584;28;4301;-81
2022/08/05 00:37:26;;;;;;;5.80;2.90;;;;;;;20.17;100.00;100449.69;686144;28;1353;-80
2022/08/05 00:37:46;;;;;;;5.28;2.72;;;;;;;20.16;100.00;100466.56;687307;28;1901;-81
2022/08/05 00:38:07;;;;;;;5.23;2.80;;;;;;;20.13;100.00;100473.78;687443;28;1328;-81
2022/08/05 00:38:27;;;;;;;4.90;2.85;;;;;;;20.12;100.00;100458.78;691358;28;1071;-81
2022/08/05 00:38:48;;;;;;;5.67;2.90;;;;;;;20.14;100.00;100465.75;691222;28;1853;-82
2022/08/05 00:39:09;;;;;;;7.10;3.20;;;;;;;20.14;100.00;100454.28;690693;28;1325;-80
2022/08/05 00:39:29;;;;;;;6.43;2.85;;;;;;;20.13;100.00;100450.78;689605;28;1157;-81
2022/08/05 00:39:53;;;;;;;5.15;2.80;;;;;;;20.17;100.00;100467.41;686269;28;1731;-81
2022/08/05 00:40:14;;;;;;;6.18;3.00;;;;;;;20.17;100.00;100480.66;688347;28;6167;-81
2022/08/05 00:40:55;;;;;;;5.07;2.80;;;;;;;20.17;100.00;100454.13;688869;28;1312;-81
2022/08/05 00:41:27;;;;;;;5.67;2.90;;;;;;;20.16;100.00;100453.28;690847;28;1219;-81
2022/08/05 00:41:48;;;;;;;5.35;2.90;;;;;;;20.15;100.00;100471.94;686189;28;1254;-80
2022/08/05 00:42:09;;;;;;;7.70;3.10;;;;;;;20.17;100.00;100451.47;686114;28;1148;-80
2022/08/05 00:42:35;;;;;;;6.50;3.00;;;;;;;20.16;100.00;100449.75;686305;28;1007;-81
2022/08/05 00:43:00;;;;;;;5.50;2.85;;;;;;;20.16;100.00;100452.41;687510;28;4362;-80
2022/08/05 00:43:22;;;;;;;6.30;3.17;;;;;;;20.16;100.00;100465.66;687415;28;1755;-80
2022/08/05 00:43:46;;;;;;;5.18;2.97;;;;;;;20.15;100.00;100467.47;687220;28;1306;-80
2022/08/05 00:44:07;;;;;;;5.50;2.70;;;;;;;20.14;100.00;100456.94;688690;28;1343;-80
2022/08/05 00:44:32;;;;;;;6.00;3.00;;;;;;;20.14;100.00;100472.88;686819;28;1650;-80
2022/08/05 00:44:55;;;;;;;6.10;2.78;;;;;;;20.13;100.00;100465.81;689927;28;1343;-81
2022/08/05 00:45:15;;;;;;;6.00;2.90;;;;;;;20.13;100.00;100456.09;683824;28;1372;-80
2022/08/05 00:45:38;;;;;;;6.00;3.00;;;;;;;20.12;100.00;100450.81;684377;28;1880;-81
2022/08/05 00:45:59;;;;;;;7.20;3.30;;;;;;;20.11;100.00;100473.00;677029;28;4446;-80
2022/08/05 00:46:19;;;;;;;5.83;2.83;;;;;;;20.10;100.00;100476.59;687707;28;1524;-80
2022/08/05 00:46:42;;;;;;;5.75;3.10;;;;;;;20.12;100.00;100464.09;687676;28;1792;-80
2022/08/05 00:47:03;;;;;;;6.43;2.90;;;;;;;20.12;100.00;100453.47;684779;28;1315;-80
2022/08/05 00:47:24;;;;;;;5.65;2.80;;;;;;;20.13;100.00;100468.47;688087;28;1538;-80
2022/08/05 00:47:50;;;;;;;5.95;2.80;;;;;;;20.15;100.00;100461.31;688010;28;1477;-80
2022/08/05 00:48:15;;;;;;;6.65;2.90;;;;;;;20.14;100.00;100446.31;687495;28;1343;-80
2022/08/05 00:48:36;;;;;;;5.88;3.03;;;;;;;20.13;100.00;100441.94;689907;28;1362;-80
2022/08/05 00:48:57;;;;;;;5.83;3.00;;;;;;;20.12;100.00;100466.75;691377;28;4433;-79
2022/08/05 00:49:18;;;;;;;6.63;2.78;;;;;;;20.12;100.00;100466.75;694189;28;1518;-80
2022/08/05 00:49:39;;;;;;;6.55;3.10;;;;;;;20.12;100.00;100474.72;690475;28;1411;-80
2022/08/05 00:50:03;;;;;;;5.85;3.03;;;;;;;20.10;100.00;100469.47;689013;28;1068;-80
2022/08/05 00:50:24;;;;;;;5.47;3.00;;;;;;;20.11;100.00;100457.09;687915;28;1721;-80
2022/08/05 00:50:46;;;;;;;6.47;3.05;;;;;;;20.13;100.00;100452.56;692153;28;1414;-81
2022/08/05 00:51:07;;;;;;;7.88;3.10;;;;;;;20.13;100.00;100455.22;687792;28;1780;-81
2022/08/05 00:51:28;;;;;;;5.90;2.80;;;;;;;20.11;100.00;100449.97;687672;28;2039;-80
2022/08/05 00:51:48;;;;;;;5.40;3.00;;;;;;;20.13;100.00;100466.72;687762;28;1259;-80
2022/08/05 00:52:09;;;;;;;4.90;2.93;;;;;;;20.13;100.00;100460.53;686623;28;4323;-80
2022/08/05 00:52:30;;;;;;;5.70;2.90;;;;;;;20.13;100.00;100460.53;688108;28;1350;-80
2022/08/05 00:52:51;;;;;;;5.72;2.83;;;;;;;20.12;100.00;100464.97;690220;28;1925;-80
2022/08/05 00:53:13;;;;;;;6.72;3.05;;;;;;;20.10;100.00;100461.53;689108;28;1623;-80
2022/08/05 00:53:37;;;;;;;5.80;3.10;;;;;;;20.08;100.00;100460.75;687928;28;1525;-80
2022/08/05 00:53:58;;;;;;;5.20;2.95;;;;;;;20.06;100.00;100484.72;686772;28;1726;-80
2022/08/05 00:54:20;;;;;;;4.57;2.75;;;;;;;20.02;100.00;100474.28;686815;28;2122;-81
2022/08/05 00:54:41;;;;;;;5.65;3.33;;;;;;;20.01;100.00;100465.47;691134;28;1381;-80
2022/08/05 00:55:03;;;;;;;5.28;3.05;;;;;;;19.99;100.00;100459.41;686873;28;5624;-80
2022/08/05 00:55:24;;;;;;;6.70;3.20;;;;;;;20.01;100.00;100468.13;686595;28;1129;-80
2022/08/05 00:55:47;;;;;;;6.63;3.00;;;;;;;20.03;100.00;100468.06;688629;28;872;-80
2022/08/05 00:56:08;;;;;;;6.50;3.00;;;;;;;20.03;100.00;100470.72;683840;28;965;-80
2022/08/05 00:56:39;;;;;;;6.35;3.22;;;;;;;20.04;100.00;100467.97;685785;28;1357;-80
2022/08/05 00:57:03;;;;;;;5.57;3.00;;;;;;;20.05;100.00;100480.31;689387;28;1573;-80
2022/08/05 00:57:24;;;;;;;6.22;3.00;;;;;;;20.06;100.00;100497.09;689738;28;1581;-80
2022/08/05 00:57:50;;;;;;;6.35;2.83;;;;;;;20.05;100.00;100482.13;688783;28;1515;-80
2022/08/05 00:58:18;;;;;;;5.63;3.00;;;;;;;20.06;100.00;100467.91;687368;28;4266;-80
2022/08/05 00:58:41;;;;;;;6.07;2.97;;;;;;;20.05;100.00;100472.38;687461;28;1409;-79
2022/08/05 00:59:03;;;;;;;4.90;2.72;;;;;;;20.06;100.00;100482.06;690410;28;1436;-79
2022/08/05 00:59:24;;;;;;;5.35;2.80;;;;;;;20.10;100.00;100487.22;691094;28;1326;-80
2022/08/05 00:59:46;;;;;;;6.05;3.00;;;;;;;20.10;100.00;100492.50;691058;28;1549;-80
2022/08/05 01:00:08;;;;;;;5.55;2.85;;;;;;;20.08;100.00;100480.16;690299;28;1762;-80
2022/08/05 01:00:33;;;;;;;5.88;2.92;;;;;;;20.06;100.00;100490.00;691940;28;1352;-80
2022/08/05 01:00:54;;;;;;;5.28;3.08;;;;;;;20.07;100.00;100477.59;681288;28;4473;-80
2022/08/05 01:01:22;;;;;;;5.72;2.80;;;;;;;20.03;100.00;100479.53;695052;28;1783;-80
2022/08/05 01:02:07;;;;;;;6.68;2.70;;;;;;;20.05;100.00;100484.78;692642;28;1187;-81
2022/08/05 01:02:33;;;;;;;5.90;3.25;;;;;;;20.05;100.00;100477.66;688280;28;1030;-81
2022/08/05 01:02:55;;;;;;;7.43;3.15;;;;;;;20.05;100.00;100480.31;686506;28;1635;-81
2022/08/05 01:03:16;;;;;;;7.65;3.33;;;;;;;20.07;100.00;100501.47;688749;28;1289;-81
2022/08/05 01:03:38;;;;;;;5.65;3.00;;;;;;;20.07;100.00;100493.50;691848;28;1521;-81
2022/08/05 01:04:06;;;;;;;4.72;2.95;;;;;;;20.07;100.00;100483.75;688881;28;4361;-81
2022/08/05 01:04:26;;;;;;;5.82;3.22;;;;;;;20.03;100.00;100505.19;689273;28;1232;-81
2022/08/05 01:04:55;;;;;;;5.37;3.07;;;;;;;20.04;100.00;100491.88;686932;28;1450;-81
2022/08/05 01:05:15;;;;;;;5.80;2.95;;;;;;;20.05;100.00;100490.09;684797;28;1251;-81
2022/08/05 01:05:36;;;;;;;6.20;3.00;;;;;;;20.06;100.00;100492.66;684677;28;1270;-81
2022/08/05 01:05:57;;;;;;;5.90;3.30;;;;;;;20.04;100.00;100485.72;687198;28;1191;-81
2022/08/05 01:06:18;;;;;;;5.25;3.13;;;;;;;20.05;100.00;100498.91;686178;28;1191;-81
2022/08/05 01:06:38;;;;;;;6.60;3.00;;;;;;;20.05;100.00;100506.84;691347;28;1008;-81
2022/08/05 01:06:59;;;;;;;7.13;3.20;;;;;;;20.03;100.00;100508.72;690186;28;4323;-81
2022/08/05 01:07:19;;;;;;;5.55;3.30;;;;;;;20.01;100.00;100518.53;691671;28;876;-81
2022/08/05 01:07:41;;;;;;;6.57;3.20;;;;;;;20.02;100.00;100485.78;687769;28;2001;-81
2022/08/05 01:08:03;;;;;;;5.53;3.00;;;;;;;20.04;100.00;100489.22;689614;28;809;-81
2022/08/05 01:08:24;;;;;;;6.38;3.33;;;;;;;20.04;100.00;100489.22;690193;28;996;-81
2022/08/05 01:08:45;;;;;;;5.83;3.30;;;;;;;19.99;100.00;100480.63;691488;28;1161;-81
2022/08/05 01:09:05;;;;;;;6.15;3.05;;;;;;;20.03;100.00;100483.97;694731;28;962;-82
2022/08/05 01:09:26;;;;;;;6.40;3.00;;;;;;;20.05;100.00;100514.81;686118;28;1369;-81
2022/08/05 01:09:46;;;;;;;6.30;3.20;;;;;;;20.07;100.00;100489.06;686921;28;1370;-81
2022/08/05 01:10:09;;;;;;;6.07;3.15;;;;;;;20.07;100.00;100481.09;685148;28;4306;-81
2022/08/05 01:10:36;;;;;;;6.45;3.28;;;;;;;20.08;100.00;100504.06;691069;28;1140;-81
2022/08/05 01:11:14;;;;;;;6.65;3.17;;;;;;;20.07;100.00;100502.31;692414;28;1145;-81
2022/08/05 01:11:38;;;;;;;5.40;3.10;;;;;;;20.08;100.00;100498.75;693732;28;1641;-81
2022/08/05 01:12:05;;;;;;;5.93;3.03;;;;;;;20.05;100.00;100490.94;690912;28;1409;-81
2022/08/05 01:12:29;;;;;;;5.72;2.90;;;;;;;20.03;100.00;100486.63;687409;28;1369;-81
2022/08/05 01:12:56;;;;;;;5.78;3.20;;;;;;;20.02;100.00;100512.31;683255;28;1404;-81
2022/08/05 01:13:43;;;;;;;5.07;3.00;;;;;;;19.96;100.00;100506.44;686672;28;4846;-81
2022/08/05 01:14:24;;;;;;;5.18;3.10;;;;;;;20.02;100.00;100501.69;686923;28;955;-81
2022/08/05 01:15:00;;;;;;;5.72;2.80;;;;;;;20.03;100.00;100495.44;689684;28;1477;-81
2022/08/05 01:15:27;;;;;;;5.32;2.97;;;;;;;20.01;100.00;100491.16;693365;28;1318;-81
2022/08/05 01:15:55;;;;;;;6.78;3.08;;;;;;;19.99;100.00;100501.84;689499;28;3534;-81
2022/08/05 01:16:23;;;;;;;4.90;2.80;;;;;;;20.03;100.00;100491.94;687739;28;5037;-82
2022/08/05 01:16:52;;;;;;;6.72;2.90;;;;;;;20.05;100.00;100512.16;684860;28;1718;-81
2022/08/05 01:17:24;;;;;;;7.25;3.00;;;;;;;20.06;100.00;100513.00;687247;28;1156;-81
2022/08/05 01:18:20;;;;;;;6.68;3.00;;;;;;;20.00;100.00;100492.94;690187;28;1486;-81
2022/08/05 01:18:46;;;;;;;5.32;2.97;;;;;;;19.94;100.00;100505.63;682548;28;1623;-82
2022/08/05 01:19:50;;;;;;;5.85;3.30;;;;;;;19.95;100.00;100504.69;689188;28;4327;-81
2022/08/05 01:20:49;;;;;;;5.75;2.97;;;;;;;19.90;100.00;100502.28;691461;28;1377;-81
2022/08/05 01:21:24;;;;;;;6.70;3.50;;;;;;;19.84;100.00;100508.72;690501;28;1695;-81
2022/08/05 01:22:26;;;;;;;5.82;2.97;;;;;;;19.94;100.00;100502.97;687521;28;1362;-81
2022/08/05 01:23:22;;;;;;;5.60;3.08;;;;;;;20.01;100.00;100496.47;686417;28;4695;-81
2022/08/05 01:24:26;;;;;;;6.55;3.10;;;;;;;19.95;100.00;100494.97;686667;28;1403;-81
2022/08/05 01:25:07;;;;;;;4.65;2.85;;;;;;;19.89;100.00;100489.94;687060;28;1798;-81
2022/08/05 01:26:01;;;;;;;5.78;3.00;;;;;;;19.87;100.00;100494.47;686263;28;1462;-82
2022/08/05 01:26:40;;;;;;;5.88;3.40;;;;;;;19.89;100.00;100495.25;685112;28;1308;-81
2022/08/05 01:27:39;;;;;;;4.80;2.90;;;;;;;19.95;100.00;100494.09;680845;28;1179;-81
2022/08/05 01:28:22;;;;;;;5.93;3.00;;;;;;;19.82;100.00;100505.25;686707;28;4322;-81
2022/08/05 01:29:07;;;;;;;5.82;3.53;;;;;;;19.80;100.00;100493.00;689469;28;888;-81
2022/08/05 01:29:47;;;;;;;6.20;3.30;;;;;;;19.74;100.00;100507.38;693014;28;1271;-82
2022/08/05 01:30:09;;;;;;;6.50;3.28;;;;;;;19.70;100.00;100508.44;695380;28;1658;-81
2022/08/05 01:30:35;;;;;;;7.10;3.50;;;;;;;19.73;100.00;100513.63;693139;28;1809;-81
2022/08/05 01:31:09;;;;;;;6.03;3.35;;;;;;;19.68;100.00;100497.91;687190;28;4329;-81
2022/08/05 01:31:40;;;;;;;5.30;3.30;;;;;;;19.61;100.00;100522.97;684604;28;1570;-82
2022/08/05 01:32:04;;;;;;;6.05;3.10;;;;;;;19.64;100.00;100514.03;685649;28;1707;-82
2022/08/05 01:32:30;;;;;;;5.15;3.15;;;;;;;19.67;100.00;100524.50;684417;28;1561;-82
2022/08/05 01:32:57;;;;;;;5.28;3.17;;;;;;;19.67;100.00;100496.19;687731;28;1519;-82
2022/08/05 01:33:21;;;;;;;6.93;3.25;;;;;;;19.68;100.00;100519.13;692026;28;1267;-82
2022/08/05 01:34:00;;;;;;;7.10;3.50;;;;;;;19.70;100.00;100503.13;687576;28;1299;-81
2022/08/05 01:34:33;;;;;;;5.72;3.10;;;;;;;19.73;100.00;100506.53;684539;28;4697;-81
2022/08/05 01:34:58;;;;;;;6.03;3.35;;;;;;;19.67;100.00;100525.34;686673;28;1330;-82
2022/08/05 01:35:26;;;;;;;6.47;3.50;;;;;;;19.61;100.00;100522.13;685730;28;1378;-82
2022/08/05 01:35:50;;;;;;;4.85;3.20;;;;;;;19.54;100.00;100502.97;686486;28;1626;-82
2022/08/05 01:36:15;;;;;;;6.22;3.40;;;;;;;19.48;100.00;100505.88;688294;28;1824;-82
2022/08/05 01:36:44;;;;;;;6.20;3.25;;;;;;;19.51;100.00;100524.34;688144;28;1588;-82
2022/08/05 01:37:17;;;;;;;6.35;3.50;;;;;;;19.49;100.00;100526.19;682814;28;4427;-81
2022/08/05 01:37:58;;;;;;;6.15;3.70;;;;;;;19.44;100.00;100506.94;690324;28;1396;-81
2022/08/05 01:38:21;;;;;;;6.00;3.30;;;;;;;19.45;100.00;100522.78;691076;28;1074;-81
2022/08/05 01:38:45;;;;;;;6.25;3.10;;;;;;;19.46;100.00;100524.53;689911;28;1271;-81
2022/08/05 01:39:15;;;;;;;6.43;3.50;;;;;;;19.43;100.00;100508.75;690767;28;955;-81
2022/08/05 01:39:37;;;;;;;6.85;3.60;;;;;;;19.41;100.00;100510.59;686954;28;1482;-82
2022/08/05 01:40:04;;;;;;;6.00;3.40;;;;;;;19.40;100.00;100515.06;687497;28;4302;-81
2022/08/05 01:40:28;;;;;;;6.75;3.50;;;;;;;19.38;100.00;100511.63;687720;28;1660;-82
2022/08/05 01:40:51;;;;;;;6.05;3.45;;;;;;;19.44;100.00;100518.44;687524;28;1400;-81
2022/08/05 01:41:15;;;;;;;7.72;3.55;;;;;;;19.46;100.00;100526.31;689188;28;1696;-82
2022/08/05 01:41:36;;;;;;;5.68;3.20;;;;;;;19.48;100.00;100511.19;688168;28;1603;-81
2022/08/05 01:42:09;;;;;;;5.22;2.97;;;;;;;19.46;100.00;100523.66;687820;28;1492;-81
2022/08/05 01:42:31;;;;;;;6.57;3.60;;;;;;;19.45;100.00;100532.53;688788;28;1144;-81
2022/08/05 01:42:54;;;;;;;6.10;3.45;;;;;;;19.49;100.00;100523.53;684768;28;4330;-81
2022/08/05 01:43:15;;;;;;;6.32;3.47;;;;;;;19.48;100.00;100519.16;685800;28;1471;-81
2022/08/05 01:43:37;;;;;;;6.28;3.50;;;;;;;19.53;100.00;100530.41;685675;28;1551;-81
2022/08/05 01:44:01;;;;;;;6.43;3.10;;;;;;;19.55;100.00;100531.22;684666;28;1255;-81
2022/08/05 01:44:23;;;;;;;5.77;3.47;;;;;;;19.54;100.00;100527.69;687108;28;924;-81
2022/08/05 01:44:46;;;;;;;6.85;3.50;;;;;;;19.55;100.00;100526.78;689788;28;1503;-81
2022/08/05 01:45:07;;;;;;;7.18;3.40;;;;;;;19.54;100.00;100537.44;686214;28;1238;-81
2022/08/05 01:45:32;;;;;;;5.97;3.20;;;;;;;19.59;100.00;100531.94;689246;28;1894;-81
2022/08/05 01:45:55;;;;;;;6.60;3.20;;;;;;;19.56;100.00;100532.94;687714;28;4304;-81
2022/08/05 01:46:16;;;;;;;7.03;3.40;;;;;;;19.56;100.00;100559.44;687376;28;1359;-80
2022/08/05 01:46:38;;;;;;;6.05;3.47;;;;;;;19.54;100.00;100543.59;690522;28;1405;-81
2022/08/05 01:47:01;;;;;;;6.40;3.28;;;;;;;19.51;100.00;100524.34;692934;28;1313;-81
2022/08/05 01:47:23;;;;;;;6.85;3.40;;;;;;;19.49;100.00;100542.09;690774;28;1235;-81
2022/08/05 01:47:47;;;;;;;5.28;3.33;;;;;;;19.53;100.00;100564.88;690238;28;1903;-82
2022/08/05 01:48:08;;;;;;;5.60;3.47;;;;;;;19.48;100.00;100543.88;690326;28;1281;-81
2022/08/05 01:48:33;;;;;;;6.18;3.40;;;;;;;19.44;100.00;100552.91;687223;28;1339;-81
2022/08/05 01:48:55;;;;;;;5.88;3.22;;;;;;;19.43;100.00;100561.78;687518;28;4323;-82
2022/08/05 01:49:20;;;;;;;5.47;3.17;;;;;;;19.46;100.00;100535.13;689501;28;1772;-82
2022/08/05 01:49:42;;;;;;;7.00;3.20;;;;;;;19.46;100.00;100550.19;691211;28;1404;-82
2022/08/05 01:50:06;;;;;;;6.55;3.50;;;;;;;19.46;100.00;100556.34;692176;28;1672;-81
2022/08/05 01:50:34;;;;;;;6.07;3.70;;;;;;;19.41;100.00;100547.72;686014;28;1647;-82
2022/08/05 01:50:58;;;;;;;7.68;3.53;;;;;;;19.39;100.00;100534.53;691842;28;1306;-82
2022/08/05 01:51:20;;;;;;;6.35;3.40;;;;;;;19.41;100.00;100571.56;691489;28;990;-82
2022/08/05 01:51:42;;;;;;;5.85;3.13;;;;;;;19.38;100.00;100577.00;692253;28;1246;-80
2022/08/05 01:52:03;;;;;;;6.07;3.20;;;;;;;19.34;100.00;100538.31;690689;28;4328;-81
2022/08/05 01:52:25;;;;;;;5.22;3.40;;;;;;;19.35;100.00;100558.59;688160;28;1345;-80
2022/08/05 01:52:48;;;;;;;6.75;3.45;;;;;;;19.39;100.00;100558.38;687857;28;1873;-80
2022/08/05 01:53:15;;;;;;;6.35;3.92;;;;;;;19.42;100.00;100532.69;686029;28;1367;-80
2022/08/05 01:53:40;;;;;;;6.28;3.58;;;;;;;19.34;100.00;100538.31;685154;28;992;-80
2022/08/05 01:54:06;;;;;;;5.78;3.50;;;;;;;19.34;100.00;100540.97;686314;28;1775;-80
2022/08/05 01:54:55;;;;;;;6.32;3.45;;;;;;;19.30;100.00;100548.19;685308;28;1224;-80
2022/08/05 01:55:23;;;;;;;5.85;3.30;;;;;;;19.32;100.00;100543.69;687386;28;4720;-80
2022/08/05 01:55:45;;;;;;;7.15;3.40;;;;;;;19.35;100.00;100543.53;691317;28;1355;-81
2022/08/05 01:56:08;;;;;;;7.20;3.67;;;;;;;19.32;100.00;100558.72;688473;28;1006;-81
2022/08/05 01:56:31;;;;;;;6.85;3.58;;;;;;;19.35;100.00;100562.09;689960;28;1540;-81
2022/08/05 01:56:55;;;;;;;7.22;3.70;;;;;;;19.36;100.00;100534.66;690279;28;1684;-80